Time;durP1;ratioP1;P1;durP2;ratioP2;P2;SDS_P1;SDS_P2;PMS_P1;PMS_P2;Temp;Humidity;BMP_temperature;BMP_pressure;BME280_temperature;BME280_humidity;BME280_pressure;Samples;Min_cycle;Max_cycle;Signal;HPM_P1;HPM_P2
2022/12/14 00:00:10;;;;;;;;;;;;;;;;;;5000643;28;20551;-51
2022/12/14 00:02:36;;;;;;;;;;;;;;;;;;4983139;28;19925;-51
2022/12/14 00:05:01;;;;;;;;;;;;;;;;;;4988773;28;20302;-50
2022/12/14 00:07:27;;;;;;;;;;;;;;;;;;4982747;28;20020;-51
2022/12/14 00:09:53;;;;;;;;;;;;;;;;;;4995754;28;20010;-51
2022/12/14 00:12:19;;;;;;;;;;;;;;;;;;4992222;28;20012;-51
2022/12/14 00:14:45;;;;;;;;;;;;;;;;;;4993766;28;20325;-50
2022/12/14 00:17:11;;;;;;;;;;;;;;;;;;4995110;28;19932;-51
2022/12/14 00:19:37;;;;;;;;;;;;;;;;;;4997440;28;19926;-51
2022/12/14 00:22:03;;;;;;;;;;;;;;;;;;5009218;28;19929;-51
2022/12/14 00:24:29;;;;;;;;;;;;;;;;;;5012013;28;19927;-51
2022/12/14 00:26:55;;;;;;;;;;;;;;;;;;5018223;28;20448;-51
2022/12/14 00:29:21;;;;;;;;;;;;;;;;;;5007911;28;19925;-51
2022/12/14 00:31:47;;;;;;;;;;;;;;;;;;4969794;28;20513;-51
2022/12/14 00:34:13;;;;;;;;;;;;;;;;;;5004407;28;19920;-51
2022/12/14 00:36:39;;;;;;;;;;;;;;;;;;4992415;28;20058;-51
2022/12/14 00:39:04;;;;;;;;;;;;;;;;;;4996280;28;19925;-50
2022/12/14 00:41:30;;;;;;;;;;;;;;;;;;4976624;28;19936;-51
2022/12/14 00:43:56;;;;;;;;;;;;;;;;;;4989208;28;19926;-51
2022/12/14 00:46:22;;;;;;;;;;;;;;;;;;4958280;28;20202;-51
2022/12/14 00:48:48;;;;;;;;;;;;;;;;;;4981758;28;19919;-51
2022/12/14 00:51:14;;;;;;;;;;;;;;;;;;4978387;28;19929;-51
2022/12/14 00:53:40;;;;;;;;;;;;;;;;;;4977190;28;19926;-51
2022/12/14 00:56:05;;;;;;;;;;;;;;;;;;4983609;28;20438;-51
2022/12/14 00:58:31;;;;;;;;;;;;;;;;;;4968941;28;19989;-51
2022/12/14 01:00:57;;;;;;;;;;;;;;;;;;4968857;28;19932;-52
2022/12/14 01:03:23;;;;;;;;;;;;;;;;;;4956045;28;19945;-51
2022/12/14 01:05:49;;;;;;;;;;;;;;;;;;4960096;28;20387;-52
2022/12/14 01:08:15;;;;;;;;;;;;;;;;;;4977611;28;19922;-51
2022/12/14 01:10:41;;;;;;;;;;;;;;;;;;4970559;28;19924;-52
2022/12/14 01:13:07;;;;;;;;;;;;;;;;;;4953269;28;19921;-52
2022/12/14 01:15:32;;;;;;;;;;;;;;;;;;4954195;28;20332;-52
2022/12/14 01:17:58;;;;;;;;;;;;;;;;;;4956054;28;20243;-51
2022/12/14 01:20:24;;;;;;;;;;;;;;;;;;4966551;28;20383;-52
2022/12/14 01:22:50;;;;;;;;;;;;;;;;;;4957824;28;19937;-51
2022/12/14 01:25:16;;;;;;;;;;;;;;;;;;4955948;28;19919;-51
2022/12/14 01:27:42;;;;;;;;;;;;;;;;;;4970320;28;19926;-52
2022/12/14 01:30:08;;;;;;;;;;;;;;;;;;4954380;28;20380;-52
2022/12/14 01:32:34;;;;;;;;;;;;;;;;;;4953279;28;20338;-51
2022/12/14 01:35:00;;;;;;;;;;;;;;;;;;4954046;28;19988;-51
2022/12/14 01:37:25;;;;;;;;;;;;;;;;;;4959596;28;20334;-51
2022/12/14 01:39:51;;;;;;;;;;;;;;;;;;4953801;28;20348;-52
2022/12/14 01:42:17;;;;;;;;;;;;;;;;;;4959144;28;19930;-52
2022/12/14 01:44:43;;;;;;;;;;;;;;;;;;4965306;28;19926;-51
2022/12/14 01:47:09;;;;;;;;;;;;;;;;;;4934916;28;19927;-51
2022/12/14 01:49:35;;;;;;;;;;;;;;;;;;4940002;28;19910;-51
2022/12/14 01:52:01;;;;;;;;;;;;;;;;;;4936082;28;20392;-51
2022/12/14 01:54:26;;;;;;;;;;;;;;;;;;4949926;28;19922;-52
2022/12/14 01:56:52;;;;;;;;;;;;;;;;;;4955613;28;20786;-51
2022/12/14 01:59:18;;;;;;;;;;;;;;;;;;4961347;28;19918;-52
2022/12/14 02:01:44;;;;;;;;;;;;;;;;;;4946702;28;19922;-51
2022/12/14 02:04:10;;;;;;;;;;;;;;;;;;4958165;28;19918;-52
2022/12/14 02:06:36;;;;;;;;;;;;;;;;;;4979718;28;20535;-52
2022/12/14 02:09:02;;;;;;;;;;;;;;;;;;4968002;28;19922;-52
2022/12/14 02:11:27;;;;;;;;;;;;;;;;;;4956827;28;19918;-52
2022/12/14 02:13:53;;;;;;;;;;;;;;;;;;4956413;28;20004;-51
2022/12/14 02:16:19;;;;;;;;;;;;;;;;;;4965186;28;20310;-51
2022/12/14 02:18:45;;;;;;;;;;;;;;;;;;4973363;28;20246;-51
2022/12/14 02:21:11;;;;;;;;;;;;;;;;;;4982381;28;20497;-51
2022/12/14 02:23:37;;;;;;;;;;;;;;;;;;4959053;28;20247;-52
2022/12/14 02:26:03;;;;;;;;;;;;;;;;;;4960130;28;19966;-51
2022/12/14 02:28:28;;;;;;;;;;;;;;;;;;4942440;28;19914;-52
2022/12/14 02:30:54;;;;;;;;;;;;;;;;;;4963109;28;19914;-52
2022/12/14 02:33:20;;;;;;;;;;;;;;;;;;4966697;28;19977;-51
2022/12/14 02:35:46;;;;;;;;;;;;;;;;;;4969551;28;19923;-51
2022/12/14 02:38:12;;;;;;;;;;;;;;;;;;4949718;28;19909;-52
2022/12/14 02:40:38;;;;;;;;;;;;;;;;;;4953098;28;19993;-51
2022/12/14 02:43:04;;;;;;;;;;;;;;;;;;4954289;28;20654;-51
2022/12/14 02:45:30;;;;;;;;;;;;;;;;;;4979285;28;20391;-52
2022/12/14 02:47:55;;;;;;;;;;;;;;;;;;4955304;28;20171;-51
2022/12/14 02:50:21;;;;;;;;;;;;;;;;;;4965941;28;20248;-52
2022/12/14 02:52:47;;;;;;;;;;;;;;;;;;4961073;28;21053;-52
2022/12/14 02:55:13;;;;;;;;;;;;;;;;;;4955980;28;19950;-51
2022/12/14 02:57:39;;;;;;;;;;;;;;;;;;4948028;28;19941;-51
2022/12/14 03:00:05;;;;;;;;;;;;;;;;;;4977586;28;19918;-51
2022/12/14 03:02:31;;;;;;;;;;;;;;;;;;4978774;28;19929;-51
2022/12/14 03:04:56;;;;;;;;;;;;;;;;;;4966429;28;19922;-51
2022/12/14 03:07:22;;;;;;;;;;;;;;;;;;4974711;28;19913;-52
2022/12/14 03:09:48;;;;;;;;;;;;;;;;;;4965445;28;20421;-53
2022/12/14 03:12:14;;;;;;;;;;;;;;;;;;4960728;28;19930;-52
2022/12/14 03:14:40;;;;;;;;;;;;;;;;;;4963508;28;19935;-51
2022/12/14 03:17:06;;;;;;;;;;;;;;;;;;4958134;28;19936;-52
2022/12/14 03:19:32;;;;;;;;;;;;;;;;;;4972642;28;19923;-51
2022/12/14 03:21:57;;;;;;;;;;;;;;;;;;4962715;28;20894;-52
2022/12/14 03:24:23;;;;;;;;;;;;;;;;;;4971039;28;20308;-52
2022/12/14 03:26:49;;;;;;;;;;;;;;;;;;4941445;28;20630;-51
2022/12/14 03:29:15;;;;;;;;;;;;;;;;;;4955687;28;20128;-51
2022/12/14 03:31:41;;;;;;;;;;;;;;;;;;4950580;28;19929;-52
2022/12/14 03:34:07;;;;;;;;;;;;;;;;;;4944655;28;19923;-51
2022/12/14 03:36:33;;;;;;;;;;;;;;;;;;4954603;28;20138;-51
2022/12/14 03:38:59;;;;;;;;;;;;;;;;;;4940146;28;20007;-51
2022/12/14 03:41:24;;;;;;;;;;;;;;;;;;4969912;28;20239;-52
2022/12/14 03:43:50;;;;;;;;;;;;;;;;;;4959021;28;20326;-51
2022/12/14 03:46:16;;;;;;;;;;;;;;;;;;4997167;28;19928;-51
2022/12/14 03:48:42;;;;;;;;;;;;;;;;;;4994428;28;20452;-51
2022/12/14 03:51:08;;;;;;;;;;;;;;;;;;4987176;28;19953;-51
2022/12/14 03:53:34;;;;;;;;;;;;;;;;;;4992127;28;20003;-51
2022/12/14 03:56:00;;;;;;;;;;;;;;;;;;4975074;28;19926;-51
2022/12/14 03:58:26;;;;;;;;;;;;;;;;;;4985423;28;19917;-51
2022/12/14 04:00:51;;;;;;;;;;;;;;;;;;4984683;28;19928;-51
2022/12/14 04:03:17;;;;;;;;;;;;;;;;;;4991251;28;19925;-51
2022/12/14 04:05:43;;;;;;;;;;;;;;;;;;4978504;28;19913;-50
2022/12/14 04:08:09;;;;;;;;;;;;;;;;;;4986864;28;20535;-51
2022/12/14 04:18:58;;;;;;;;;;;;;;;;;;5005470;28;20012;-51
2022/12/14 04:21:24;;;;;;;;;;;;;;;;;;4997325;28;20223;-51
2022/12/14 04:26:34;;;;;;;;;;;;;;;;;;5009552;28;19935;-51
2022/12/14 04:31:45;;;;;;;;;;;;;;;;;;5005496;28;19928;-51
2022/12/14 04:34:10;;;;;;;;;;;;;;;;;;5006283;28;19921;-51
2022/12/14 04:36:36;;;;;;;;;;;;;;;;;;4996234;28;19928;-51
2022/12/14 04:39:02;;;;;;;;;;;;;;;;;;4997920;28;19928;-51
2022/12/14 04:41:28;;;;;;;;;;;;;;;;;;4994135;28;19928;-51
2022/12/14 04:43:54;;;;;;;;;;;;;;;;;;4996282;28;19932;-51
2022/12/14 04:46:20;;;;;;;;;;;;;;;;;;4978187;28;19925;-51
2022/12/14 04:48:46;;;;;;;;;;;;;;;;;;4994460;28;19992;-51
2022/12/14 04:51:12;;;;;;;;;;;;;;;;;;4998898;28;19925;-51
2022/12/14 04:53:37;;;;;;;;;;;;;;;;;;4984489;28;19921;-51
2022/12/14 04:56:03;;;;;;;;;;;;;;;;;;4998220;28;19926;-51
2022/12/14 04:58:29;;;;;;;;;;;;;;;;;;5007258;28;19932;-51
2022/12/14 05:00:55;;;;;;;;;;;;;;;;;;4998863;28;19922;-51
2022/12/14 05:03:21;;;;;;;;;;;;;;;;;;4996965;28;20386;-50
2022/12/14 05:05:47;;;;;;;;;;;;;;;;;;4996563;28;19927;-51
2022/12/14 05:08:13;;;;;;;;;;;;;;;;;;5001492;28;19922;-51
2022/12/14 05:10:39;;;;;;;;;;;;;;;;;;5004821;28;19925;-51
2022/12/14 05:13:05;;;;;;;;;;;;;;;;;;4988055;28;20614;-51
2022/12/14 05:15:30;;;;;;;;;;;;;;;;;;4999657;28;19930;-52
2022/12/14 05:17:56;;;;;;;;;;;;;;;;;;4997979;28;20047;-51
2022/12/14 05:20:22;;;;;;;;;;;;;;;;;;4991511;28;19935;-51
2022/12/14 05:22:48;;;;;;;;;;;;;;;;;;4994333;28;19925;-50
2022/12/14 05:25:14;;;;;;;;;;;;;;;;;;4994171;28;19921;-51
2022/12/14 05:27:40;;;;;;;;;;;;;;;;;;4983872;28;19925;-51
2022/12/14 05:30:06;;;;;;;;;;;;;;;;;;4996332;28;19929;-51
2022/12/14 05:32:32;;;;;;;;;;;;;;;;;;4981989;28;20278;-51
2022/12/14 05:34:58;;;;;;;;;;;;;;;;;;4990381;28;20474;-51
2022/12/14 05:37:23;;;;;;;;;;;;;;;;;;4979175;28;19925;-51
2022/12/14 05:39:49;;;;;;;;;;;;;;;;;;4987391;28;19983;-51
2022/12/14 05:42:15;;;;;;;;;;;;;;;;;;4963749;28;20109;-51
2022/12/14 05:44:41;;;;;;;;;;;;;;;;;;4975118;28;20386;-51
2022/12/14 05:47:07;;;;;;;;;;;;;;;;;;4978048;28;19917;-52
2022/12/14 05:49:33;;;;;;;;;;;;;;;;;;4991581;28;19924;-51
2022/12/14 05:51:59;;;;;;;;;;;;;;;;;;5004531;28;19932;-51
2022/12/14 05:54:25;;;;;;;;;;;;;;;;;;4993223;28;19934;-51
2022/12/14 05:56:51;;;;;;;;;;;;;;;;;;5002463;28;20896;-51
2022/12/14 05:59:17;;;;;;;;;;;;;;;;;;4992765;28;20863;-51
2022/12/14 06:01:43;;;;;;;;;;;;;;;;;;4988171;28;19921;-51
2022/12/14 06:04:09;;;;;;;;;;;;;;;;;;4964842;28;20315;-51
2022/12/14 06:06:35;;;;;;;;;;;;;;;;;;4984724;28;20464;-51
2022/12/14 06:09:01;;;;;;;;;;;;;;;;;;4981382;28;20540;-50
2022/12/14 06:11:27;;;;;;;;;;;;;;;;;;4968472;28;20434;-50
2022/12/14 06:13:52;;;;;;;;;;;;;;;;;;4958494;28;19926;-50
2022/12/14 06:16:18;;;;;;;;;;;;;;;;;;4973237;28;20024;-51
2022/12/14 06:18:44;;;;;;;;;;;;;;;;;;4994265;28;19929;-51
2022/12/14 06:21:10;;;;;;;;;;;;;;;;;;4983801;28;19960;-51
2022/12/14 06:23:36;;;;;;;;;;;;;;;;;;4982293;28;20464;-51
2022/12/14 06:26:02;;;;;;;;;;;;;;;;;;4997575;28;19921;-50
2022/12/14 06:28:28;;;;;;;;;;;;;;;;;;5012230;28;19932;-51
2022/12/14 06:30:54;;;;;;;;;;;;;;;;;;5003146;28;20001;-51
2022/12/14 06:33:19;;;;;;;;;;;;;;;;;;5005668;28;20075;-51
2022/12/14 06:35:45;;;;;;;;;;;;;;;;;;4991603;28;19925;-51
2022/12/14 06:38:11;;;;;;;;;;;;;;;;;;5000752;28;19970;-51
2022/12/14 06:40:37;;;;;;;;;;;;;;;;;;5004256;28;19936;-51
2022/12/14 06:43:03;;;;;;;;;;;;;;;;;;5010922;28;19924;-51
2022/12/14 06:45:29;;;;;;;;;;;;;;;;;;5009104;28;20406;-51
2022/12/14 06:47:55;;;;;;;;;;;;;;;;;;5005671;28;20007;-51
2022/12/14 06:50:21;;;;;;;;;;;;;;;;;;5009737;28;19944;-51
2022/12/14 06:52:47;;;;;;;;;;;;;;;;;;5006478;28;19926;-51
2022/12/14 06:55:13;;;;;;;;;;;;;;;;;;5014138;28;20012;-51
2022/12/14 06:57:39;;;;;;;;;;;;;;;;;;5007829;28;20033;-51
2022/12/14 07:00:05;;;;;;;;;;;;;;;;;;5025761;28;19932;-51
2022/12/14 07:02:30;;;;;;;;;;;;;;;;;;5008931;28;20422;-50
2022/12/14 07:04:56;;;;;;;;;;;;;;;;;;4992798;28;19925;-51
2022/12/14 07:07:22;;;;;;;;;;;;;;;;;;4995001;28;20307;-51
2022/12/14 07:09:48;;;;;;;;;;;;;;;;;;5013848;28;20439;-51
2022/12/14 07:12:14;;;;;;;;;;;;;;;;;;5002205;28;19952;-51
2022/12/14 07:14:40;;;;;;;;;;;;;;;;;;5007270;28;19921;-51
2022/12/14 07:17:06;;;;;;;;;;;;;;;;;;5010264;28;20066;-51
2022/12/14 07:19:31;;;;;;;;;;;;;;;;;;4994939;28;19974;-51
2022/12/14 07:22:02;;;;;;;;;;;;;;;;;;5013698;28;20382;-51
2022/12/14 07:24:28;;;;;;;;;;;;;;;;;;5010914;28;20438;-51
2022/12/14 07:26:55;;;;;;;;;;;;;;;;;;5018283;28;19925;-51
2022/12/14 07:29:21;;;;;;;;;;;;;;;;;;4999931;28;19965;-51
2022/12/14 07:31:47;;;;;;;;;;;;;;;;;;5011364;28;19952;-51
2022/12/14 07:34:13;;;;;;;;;;;;;;;;;;5014716;28;20522;-51
2022/12/14 07:36:39;;;;;;;;;;;;;;;;;;5015413;28;19985;-51
2022/12/14 07:39:05;;;;;;;;;;;;;;;;;;5009879;28;19975;-51
2022/12/14 07:41:31;;;;;;;;;;;;;;;;;;5002989;28;20037;-51
2022/12/14 07:43:57;;;;;;;;;;;;;;;;;;5006470;28;20405;-51
2022/12/14 07:46:23;;;;;;;;;;;;;;;;;;5003296;28;19929;-51
2022/12/14 07:48:48;;;;;;;;;;;;;;;;;;5011354;28;20389;-51
2022/12/14 07:51:14;;;;;;;;;;;;;;;;;;5009372;28;19963;-51
2022/12/14 07:53:40;;;;;;;;;;;;;;;;;;5006215;28;19990;-51
2022/12/14 07:56:06;;;;;;;;;;;;;;;;;;5004812;28;19913;-51
2022/12/14 07:58:32;;;;;;;;;;;;;;;;;;5010874;28;19933;-51
2022/12/14 08:00:58;;;;;;;;;;;;;;;;;;5001869;28;20293;-51
2022/12/14 08:03:24;;;;;;;;;;;;;;;;;;5001214;28;19925;-51
2022/12/14 08:05:50;;;;;;;;;;;;;;;;;;5012051;28;19928;-51
2022/12/14 08:08:15;;;;;;;;;;;;;;;;;;5006549;28;19917;-50
2022/12/14 08:10:41;;;;;;;;;;;;;;;;;;5012165;28;20367;-51
2022/12/14 08:13:07;;;;;;;;;;;;;;;;;;5010711;28;19928;-50
2022/12/14 08:15:33;;;;;;;;;;;;;;;;;;5008492;28;19917;-51
2022/12/14 08:17:59;;;;;;;;;;;;;;;;;;5006696;28;19925;-51
2022/12/14 08:20:25;;;;;;;;;;;;;;;;;;5008472;28;19916;-51
2022/12/14 08:22:51;;;;;;;;;;;;;;;;;;5012258;28;19929;-51
2022/12/14 08:25:17;;;;;;;;;;;;;;;;;;5009630;28;19922;-51
2022/12/14 08:27:43;;;;;;;;;;;;;;;;;;5018296;28;19917;-50
2022/12/14 08:30:09;;;;;;;;;;;;;;;;;;4992480;28;20397;-51
2022/12/14 08:32:34;;;;;;;;;;;;;;;;;;5011533;28;19959;-51
2022/12/14 08:35:00;;;;;;;;;;;;;;;;;;5004628;28;19985;-51
2022/12/14 08:37:26;;;;;;;;;;;;;;;;;;5013562;28;20420;-51
2022/12/14 08:39:52;;;;;;;;;;;;;;;;;;5011607;28;19925;-51
2022/12/14 08:42:18;;;;;;;;;;;;;;;;;;5009754;28;19976;-51
2022/12/14 08:44:44;;;;;;;;;;;;;;;;;;5005703;28;19922;-51
2022/12/14 08:47:10;;;;;;;;;;;;;;;;;;5008275;28;20326;-51
2022/12/14 08:49:36;;;;;;;;;;;;;;;;;;5016654;28;20249;-51
2022/12/14 08:52:01;;;;;;;;;;;;;;;;;;5005909;28;19928;-51
2022/12/14 08:54:27;;;;;;;;;;;;;;;;;;5016307;28;19974;-51
2022/12/14 08:56:53;;;;;;;;;;;;;;;;;;5007676;28;19921;-51
2022/12/14 08:59:19;;;;;;;;;;;;;;;;;;5004772;28;19926;-51
2022/12/14 09:01:46;;;;;;;;;;;;;;;;;;5005232;28;19929;-51
2022/12/14 09:04:12;;;;;;;;;;;;;;;;;;5011369;28;19971;-51
2022/12/14 09:06:38;;;;;;;;;;;;;;;;;;5005527;28;19925;-51
2022/12/14 09:09:03;;;;;;;;;;;;;;;;;;5015329;28;19944;-51
2022/12/14 09:11:29;;;;;;;;;;;;;;;;;;4990239;28;19933;-51
2022/12/14 09:13:55;;;;;;;;;;;;;;;;;;5010729;28;19918;-51
2022/12/14 09:16:21;;;;;;;;;;;;;;;;;;5007155;28;19928;-50
2022/12/14 09:18:47;;;;;;;;;;;;;;;;;;5006318;28;19932;-51
2022/12/14 09:21:13;;;;;;;;;;;;;;;;;;5007592;28;19922;-51
2022/12/14 09:23:39;;;;;;;;;;;;;;;;;;5004532;28;20347;-51
2022/12/14 09:26:05;;;;;;;;;;;;;;;;;;5013881;28;19920;-51
2022/12/14 09:28:30;;;;;;;;;;;;;;;;;;5003287;28;19922;-51
2022/12/14 09:30:56;;;;;;;;;;;;;;;;;;5000771;28;19925;-51
2022/12/14 09:33:22;;;;;;;;;;;;;;;;;;5013165;28;19929;-51
2022/12/14 09:35:48;;;;;;;;;;;;;;;;;;5005609;28;19925;-51
2022/12/14 09:38:14;;;;;;;;;;;;;;;;;;5011026;28;19917;-51
2022/12/14 09:40:40;;;;;;;;;;;;;;;;;;5006061;28;20973;-51
2022/12/14 09:43:06;;;;;;;;;;;;;;;;;;5018397;28;19925;-51
2022/12/14 09:45:32;;;;;;;;;;;;;;;;;;5013454;28;20420;-51
2022/12/14 09:47:57;;;;;;;;;;;;;;;;;;5001724;28;19922;-51
2022/12/14 09:50:24;;;;;;;;;;;;;;;;;;5006311;28;20404;-51
2022/12/14 09:52:50;;;;;;;;;;;;;;;;;;4998937;28;20278;-51
2022/12/14 09:55:15;;;;;;;;;;;;;;;;;;4997314;28;19949;-51
2022/12/14 09:57:41;;;;;;;;;;;;;;;;;;5012719;28;19928;-51
2022/12/14 10:00:07;;;;;;;;;;;;;;;;;;5011322;28;19922;-51
2022/12/14 10:02:33;;;;;;;;;;;;;;;;;;5007520;28;19928;-51
2022/12/14 10:04:59;;;;;;;;;;;;;;;;;;5008536;28;19944;-51
2022/12/14 10:07:25;;;;;;;;;;;;;;;;;;5012785;28;19925;-51
2022/12/14 10:09:51;;;;;;;;;;;;;;;;;;5010015;28;19948;-51
2022/12/14 10:12:17;;;;;;;;;;;;;;;;;;5005167;28;19933;-51
2022/12/14 10:14:43;;;;;;;;;;;;;;;;;;5004115;28;19995;-51
2022/12/14 10:17:09;;;;;;;;;;;;;;;;;;5009545;28;19925;-51
2022/12/14 10:19:35;;;;;;;;;;;;;;;;;;4999073;28;19932;-51
2022/12/14 10:22:00;;;;;;;;;;;;;;;;;;5018634;28;19917;-51
2022/12/14 10:24:26;;;;;;;;;;;;;;;;;;5007185;28;19925;-51
2022/12/14 10:26:52;;;;;;;;;;;;;;;;;;5002352;28;19952;-51
2022/12/14 10:29:18;;;;;;;;;;;;;;;;;;5011846;28;19921;-51
2022/12/14 10:31:44;;;;;;;;;;;;;;;;;;5015492;28;20277;-51
2022/12/14 10:34:10;;;;;;;;;;;;;;;;;;5014626;28;19917;-50
2022/12/14 10:36:36;;;;;;;;;;;;;;;;;;5015400;28;19925;-51
2022/12/14 10:39:02;;;;;;;;;;;;;;;;;;4999898;28;19932;-51
2022/12/14 10:41:28;;;;;;;;;;;;;;;;;;5009406;28;20361;-51
2022/12/14 10:43:54;;;;;;;;;;;;;;;;;;5011330;28;19921;-51
2022/12/14 10:46:19;;;;;;;;;;;;;;;;;;5009358;28;19924;-51
2022/12/14 10:48:45;;;;;;;;;;;;;;;;;;5010609;28;19983;-51
2022/12/14 10:51:12;;;;;;;;;;;;;;;;;;5007510;28;19924;-51
2022/12/14 10:53:37;;;;;;;;;;;;;;;;;;4995098;28;19948;-51
2022/12/14 10:56:03;;;;;;;;;;;;;;;;;;5008324;28;19918;-52
2022/12/14 10:58:29;;;;;;;;;;;;;;;;;;5010793;28;20447;-51
2022/12/14 11:00:55;;;;;;;;;;;;;;;;;;5005998;28;19926;-51
2022/12/14 11:03:21;;;;;;;;;;;;;;;;;;5006009;28;20789;-51
2022/12/14 11:05:47;;;;;;;;;;;;;;;;;;5008010;28;20059;-51
2022/12/14 11:08:14;;;;;;;;;;;;;;;;;;4985362;28;20472;-51
2022/12/14 11:10:40;;;;;;;;;;;;;;;;;;4992310;28;20385;-51
2022/12/14 11:13:06;;;;;;;;;;;;;;;;;;4983115;28;19922;-51
2022/12/14 11:15:32;;;;;;;;;;;;;;;;;;4974297;28;20367;-52
2022/12/14 11:17:58;;;;;;;;;;;;;;;;;;4997327;28;19917;-51
2022/12/14 11:20:24;;;;;;;;;;;;;;;;;;4981088;28;19922;-51
2022/12/14 11:22:50;;;;;;;;;;;;;;;;;;4986298;28;19956;-52
2022/12/14 11:25:16;;;;;;;;;;;;;;;;;;4974720;28;20145;-52
2022/12/14 11:27:42;;;;;;;;;;;;;;;;;;4979991;28;20387;-52
2022/12/14 11:30:08;;;;;;;;;;;;;;;;;;4977935;28;19926;-51
2022/12/14 11:32:34;;;;;;;;;;;;;;;;;;4988190;28;20335;-52
2022/12/14 11:34:59;;;;;;;;;;;;;;;;;;4991749;28;19944;-52
2022/12/14 11:37:25;;;;;;;;;;;;;;;;;;4983180;28;19996;-52
2022/12/14 11:39:51;;;;;;;;;;;;;;;;;;4982950;28;19929;-52
2022/12/14 11:42:17;;;;;;;;;;;;;;;;;;4991339;28;19984;-52
2022/12/14 11:44:45;;;;;;;;;;;;;;;;;;4974603;28;21687;-51
2022/12/14 11:47:11;;;;;;;;;;;;;;;;;;4983863;28;19918;-52
2022/12/14 11:49:37;;;;;;;;;;;;;;;;;;4988065;28;19917;-52
2022/12/14 11:52:03;;;;;;;;;;;;;;;;;;4996124;28;19938;-53
2022/12/14 11:54:28;;;;;;;;;;;;;;;;;;4998384;28;19922;-52
2022/12/14 11:56:54;;;;;;;;;;;;;;;;;;4963678;28;20298;-53
2022/12/14 11:59:20;;;;;;;;;;;;;;;;;;4970998;28;19921;-52
2022/12/14 12:01:46;;;;;;;;;;;;;;;;;;4985848;28;20433;-53
2022/12/14 12:04:12;;;;;;;;;;;;;;;;;;4982526;28;19936;-51
2022/12/14 12:06:39;;;;;;;;;;;;;;;;;;4993173;28;20285;-52
2022/12/14 12:09:05;;;;;;;;;;;;;;;;;;4992055;28;19921;-51
2022/12/14 12:11:31;;;;;;;;;;;;;;;;;;4973118;28;19922;-52
2022/12/14 12:13:57;;;;;;;;;;;;;;;;;;4997174;28;20032;-52
2022/12/14 12:16:23;;;;;;;;;;;;;;;;;;4979510;28;20812;-52
2022/12/14 12:18:48;;;;;;;;;;;;;;;;;;4981140;28;19928;-51
2022/12/14 12:21:14;;;;;;;;;;;;;;;;;;4977169;28;19917;-52
2022/12/14 12:23:40;;;;;;;;;;;;;;;;;;4981671;28;20052;-51
2022/12/14 12:26:06;;;;;;;;;;;;;;;;;;4989947;28;20398;-52
2022/12/14 12:28:32;;;;;;;;;;;;;;;;;;4984628;28;20017;-52
2022/12/14 12:30:58;;;;;;;;;;;;;;;;;;4977962;28;19923;-51
2022/12/14 12:33:24;;;;;;;;;;;;;;;;;;4951263;28;20045;-51
2022/12/14 12:35:50;;;;;;;;;;;;;;;;;;4948257;28;20176;-52
2022/12/14 12:38:15;;;;;;;;;;;;;;;;;;4953196;28;19933;-51
2022/12/14 12:40:41;;;;;;;;;;;;;;;;;;4969420;28;19959;-52
2022/12/14 12:43:07;;;;;;;;;;;;;;;;;;4961102;28;20332;-52
2022/12/14 12:45:33;;;;;;;;;;;;;;;;;;4952334;28;20114;-51
2022/12/14 12:47:59;;;;;;;;;;;;;;;;;;4963742;28;19911;-51
2022/12/14 12:50:25;;;;;;;;;;;;;;;;;;4969558;28;20002;-53
2022/12/14 12:52:51;;;;;;;;;;;;;;;;;;4973966;28;19922;-51
2022/12/14 12:55:17;;;;;;;;;;;;;;;;;;4958064;28;20138;-51
2022/12/14 12:57:42;;;;;;;;;;;;;;;;;;4970467;28;19926;-51
2022/12/14 13:00:08;;;;;;;;;;;;;;;;;;4975673;28;19929;-51
2022/12/14 13:02:34;;;;;;;;;;;;;;;;;;4960638;28;19931;-52
2022/12/14 13:05:00;;;;;;;;;;;;;;;;;;4958018;28;19922;-52
2022/12/14 13:07:26;;;;;;;;;;;;;;;;;;4956752;28;19973;-52
2022/12/14 13:09:52;;;;;;;;;;;;;;;;;;4958641;28;19933;-51
2022/12/14 13:12:18;;;;;;;;;;;;;;;;;;4958560;28;19922;-52
2022/12/14 13:14:44;;;;;;;;;;;;;;;;;;4970455;28;19921;-52
2022/12/14 13:17:09;;;;;;;;;;;;;;;;;;4962964;28;20401;-52
2022/12/14 13:19:35;;;;;;;;;;;;;;;;;;4959170;28;19945;-52
2022/12/14 13:22:01;;;;;;;;;;;;;;;;;;4968470;28;19933;-52
2022/12/14 13:24:27;;;;;;;;;;;;;;;;;;4956143;28;19922;-52
2022/12/14 13:26:53;;;;;;;;;;;;;;;;;;4969630;28;20952;-51
2022/12/14 13:29:19;;;;;;;;;;;;;;;;;;4947412;28;19918;-52
2022/12/14 13:31:45;;;;;;;;;;;;;;;;;;4946886;28;19928;-51
2022/12/14 13:34:11;;;;;;;;;;;;;;;;;;4953458;28;20553;-51
2022/12/14 13:36:37;;;;;;;;;;;;;;;;;;4978271;28;19995;-52
2022/12/14 13:39:03;;;;;;;;;;;;;;;;;;4953114;28;20445;-51
2022/12/14 13:41:28;;;;;;;;;;;;;;;;;;4953474;28;19925;-51
2022/12/14 13:43:54;;;;;;;;;;;;;;;;;;4949981;28;19932;-51
2022/12/14 13:46:20;;;;;;;;;;;;;;;;;;4968441;28;19922;-51
2022/12/14 13:48:46;;;;;;;;;;;;;;;;;;4955024;28;20360;-50
2022/12/14 13:51:12;;;;;;;;;;;;;;;;;;4968532;28;19930;-50
2022/12/14 13:53:38;;;;;;;;;;;;;;;;;;4965511;28;19914;-51
2022/12/14 13:56:04;;;;;;;;;;;;;;;;;;4958212;28;20400;-51
2022/12/14 13:58:29;;;;;;;;;;;;;;;;;;4971414;28;19909;-51
2022/12/14 14:00:55;;;;;;;;;;;;;;;;;;4964721;28;19917;-51
2022/12/14 14:03:21;;;;;;;;;;;;;;;;;;4974222;28;19953;-51
2022/12/14 14:05:47;;;;;;;;;;;;;;;;;;4963134;28;19922;-51
2022/12/14 14:08:13;;;;;;;;;;;;;;;;;;4976689;28;19942;-51
2022/12/14 14:10:40;;;;;;;;;;;;;;;;;;4922944;28;20036;-50
2022/12/14 14:13:06;;;;;;;;;;;;;;;;;;4954063;28;19926;-51
2022/12/14 14:15:32;;;;;;;;;;;;;;;;;;4928391;28;19972;-51
2022/12/14 14:17:58;;;;;;;;;;;;;;;;;;4972803;28;19941;-51
2022/12/14 14:20:24;;;;;;;;;;;;;;;;;;4939359;28;20047;-50
2022/12/14 14:22:49;;;;;;;;;;;;;;;;;;4942931;28;19929;-51
2022/12/14 14:25:15;;;;;;;;;;;;;;;;;;4946981;28;19922;-51
2022/12/14 14:27:41;;;;;;;;;;;;;;;;;;4935882;28;19929;-51
2022/12/14 14:30:07;;;;;;;;;;;;;;;;;;4948440;28;20785;-51
2022/12/14 14:32:33;;;;;;;;;;;;;;;;;;4962712;28;20191;-51
2022/12/14 14:34:59;;;;;;;;;;;;;;;;;;4945012;28;19925;-51
2022/12/14 14:37:25;;;;;;;;;;;;;;;;;;4949313;28;20014;-51
2022/12/14 14:39:51;;;;;;;;;;;;;;;;;;4937421;28;19929;-51
2022/12/14 14:42:17;;;;;;;;;;;;;;;;;;4955331;28;20044;-51
2022/12/14 14:44:43;;;;;;;;;;;;;;;;;;4944205;28;19922;-51
2022/12/14 14:47:08;;;;;;;;;;;;;;;;;;4960613;28;20448;-51
2022/12/14 14:49:34;;;;;;;;;;;;;;;;;;4927374;28;19917;-50
2022/12/14 14:52:00;;;;;;;;;;;;;;;;;;4960411;28;20011;-50
2022/12/14 14:54:26;;;;;;;;;;;;;;;;;;4955994;28;26003;-50
2022/12/14 14:56:52;;;;;;;;;;;;;;;;;;4970429;28;20384;-50
2022/12/14 14:59:18;;;;;;;;;;;;;;;;;;4966121;28;19938;-52
2022/12/14 15:01:44;;;;;;;;;;;;;;;;;;4948137;28;20404;-51
2022/12/14 15:04:10;;;;;;;;;;;;;;;;;;4963968;28;19929;-50
2022/12/14 15:06:36;;;;;;;;;;;;;;;;;;4954788;28;20307;-51
2022/12/14 15:09:02;;;;;;;;;;;;;;;;;;4969986;28;19926;-50
2022/12/14 15:11:28;;;;;;;;;;;;;;;;;;4969442;28;20305;-50
2022/12/14 15:13:53;;;;;;;;;;;;;;;;;;4961862;28;20269;-51
2022/12/14 15:16:19;;;;;;;;;;;;;;;;;;4926467;28;20356;-51
2022/12/14 15:18:45;;;;;;;;;;;;;;;;;;4956202;28;19949;-51
2022/12/14 15:21:14;;;;;;;;;;;;;;;;;;4970989;28;20772;-51
2022/12/14 15:23:40;;;;;;;;;;;;;;;;;;4983821;28;19995;-50
2022/12/14 15:26:06;;;;;;;;;;;;;;;;;;4985190;28;19921;-51
2022/12/14 15:28:32;;;;;;;;;;;;;;;;;;4971832;28;20027;-50
2022/12/14 15:30:58;;;;;;;;;;;;;;;;;;4947331;28;20406;-51
2022/12/14 15:33:24;;;;;;;;;;;;;;;;;;4974033;28;19926;-50
2022/12/14 15:35:50;;;;;;;;;;;;;;;;;;4959421;28;19924;-51
2022/12/14 15:38:16;;;;;;;;;;;;;;;;;;4946870;28;20897;-51
2022/12/14 15:40:42;;;;;;;;;;;;;;;;;;4915015;28;19930;-51
2022/12/14 15:43:08;;;;;;;;;;;;;;;;;;4965517;28;19964;-50
2022/12/14 15:45:34;;;;;;;;;;;;;;;;;;4956034;28;19925;-51
2022/12/14 15:48:00;;;;;;;;;;;;;;;;;;4905468;28;19961;-50
2022/12/14 15:50:25;;;;;;;;;;;;;;;;;;4904685;28;19918;-51
2022/12/14 15:52:51;;;;;;;;;;;;;;;;;;4900534;28;20016;-51
2022/12/14 15:55:17;;;;;;;;;;;;;;;;;;4902387;28;19926;-50
2022/12/14 15:57:43;;;;;;;;;;;;;;;;;;4953072;28;19960;-51
2022/12/14 16:00:09;;;;;;;;;;;;;;;;;;4962608;28;20510;-51
2022/12/14 16:02:40;;;;;;;;;;;;;;;;;;4978411;28;19957;-51
2022/12/14 16:05:06;;;;;;;;;;;;;;;;;;4982209;28;19925;-50
2022/12/14 16:07:32;;;;;;;;;;;;;;;;;;4981456;28;19985;-51
2022/12/14 16:09:58;;;;;;;;;;;;;;;;;;4965995;28;19922;-51
2022/12/14 16:12:24;;;;;;;;;;;;;;;;;;4982791;28;20418;-51
2022/12/14 16:14:52;;;;;;;;;;;;;;;;;;4955747;28;19968;-51
2022/12/14 16:17:18;;;;;;;;;;;;;;;;;;4960145;28;19934;-51
2022/12/14 16:19:44;;;;;;;;;;;;;;;;;;4963590;28;19949;-51
2022/12/14 16:22:10;;;;;;;;;;;;;;;;;;4984114;28;19914;-51
2022/12/14 16:24:36;;;;;;;;;;;;;;;;;;4958647;28;19925;-50
2022/12/14 16:27:02;;;;;;;;;;;;;;;;;;4971998;28;19961;-50
2022/12/14 16:29:28;;;;;;;;;;;;;;;;;;4970498;28;20528;-51
2022/12/14 16:31:54;;;;;;;;;;;;;;;;;;4964071;28;19973;-50
2022/12/14 16:34:22;;;;;;;;;;;;;;;;;;4947560;28;20032;-50
2022/12/14 16:36:48;;;;;;;;;;;;;;;;;;4936764;28;20040;-50
2022/12/14 16:39:14;;;;;;;;;;;;;;;;;;4963457;28;19922;-51
2022/12/14 16:41:40;;;;;;;;;;;;;;;;;;4984796;28;19932;-50
2022/12/14 16:44:05;;;;;;;;;;;;;;;;;;4936205;28;19926;-51
2022/12/14 16:46:31;;;;;;;;;;;;;;;;;;4985328;28;19925;-50
2022/12/14 16:48:57;;;;;;;;;;;;;;;;;;4941777;28;19992;-51